createdAt,value
2018-09-25T00:01:39.612Z,6.37
2018-09-25T00:04:13.225Z,6.80
2018-09-25T00:06:47.108Z,6.47
2018-09-25T00:09:20.830Z,6.60
2018-09-25T00:11:54.436Z,7.70
2018-09-25T00:14:28.318Z,8.17
2018-09-25T00:17:02.099Z,7.63
2018-09-25T00:19:35.833Z,6.70
2018-09-25T00:22:10.261Z,7.53
2018-09-25T00:24:44.180Z,7.87
2018-09-25T00:27:17.976Z,7.70
2018-09-25T00:29:51.875Z,7.50
2018-09-25T00:32:25.529Z,7.00
2018-09-25T00:34:59.346Z,7.60
2018-09-25T00:37:33.065Z,7.03
2018-09-25T00:40:06.810Z,7.50
2018-09-25T00:42:40.573Z,7.07
2018-09-25T00:45:14.339Z,7.37
2018-09-25T00:47:48.090Z,6.67
2018-09-25T00:50:22.255Z,5.80
2018-09-25T00:52:56.553Z,6.47
2018-09-25T00:55:30.241Z,6.53
2018-09-25T00:58:03.890Z,6.40
2018-09-25T01:00:37.706Z,6.30
2018-09-25T01:03:11.912Z,7.13
2018-09-25T01:05:46.364Z,7.20
2018-09-25T01:08:20.865Z,6.67
2018-09-25T01:10:54.547Z,7.27
2018-09-25T01:13:28.310Z,6.30
2018-09-25T01:16:02.107Z,6.73
2018-09-25T01:18:36.039Z,7.87
2018-09-25T01:21:10.799Z,6.77
2018-09-25T01:23:44.597Z,5.97
2018-09-25T01:26:18.541Z,6.90
2018-09-25T01:28:53.614Z,7.30
2018-09-25T01:31:27.296Z,6.87
2018-09-25T01:34:01.166Z,7.30
2018-09-25T01:36:34.911Z,8.43
2018-09-25T01:39:08.786Z,7.50
2018-09-25T01:41:42.678Z,8.60
2018-09-25T01:44:16.509Z,8.90
2018-09-25T01:46:50.329Z,8.20
2018-09-25T01:49:25.501Z,9.67
2018-09-25T01:51:59.359Z,7.17
2018-09-25T01:54:33.458Z,8.90
2018-09-25T01:57:07.274Z,10.37
2018-09-25T01:59:41.184Z,8.90
2018-09-25T02:02:15.731Z,8.50
2018-09-25T02:04:50.686Z,10.90
2018-09-25T02:07:24.550Z,10.07
2018-09-25T02:09:58.281Z,9.13
2018-09-25T02:12:32.107Z,9.27
2018-09-25T02:15:05.836Z,9.33
2018-09-25T02:17:39.579Z,10.13
2018-09-25T02:20:13.420Z,9.63
2018-09-25T02:22:47.320Z,12.10
2018-09-25T02:25:21.719Z,10.80
2018-09-25T02:27:55.661Z,9.90
2018-09-25T02:30:30.434Z,9.50
2018-09-25T02:33:04.122Z,10.77
2018-09-25T02:35:39.363Z,9.17
2018-09-25T02:38:13.255Z,9.53
2018-09-25T02:40:47.105Z,8.70
2018-09-25T02:43:21.606Z,9.90
2018-09-25T02:45:56.742Z,9.53
2018-09-25T02:48:30.631Z,10.50
2018-09-25T02:51:05.276Z,10.97
2018-09-25T02:53:39.118Z,8.63
2018-09-25T02:56:12.786Z,8.97
2018-09-25T03:05:59.294Z,7.30
2018-09-25T03:08:33.156Z,9.50
2018-09-25T03:11:08.551Z,8.73
2018-09-25T03:13:42.988Z,8.57
2018-09-25T03:16:16.875Z,9.23
2018-09-25T03:18:50.688Z,10.00
2018-09-25T03:21:25.562Z,9.27
2018-09-25T03:23:59.717Z,9.00
2018-09-25T03:26:33.271Z,10.10
2018-09-25T03:29:07.142Z,9.70
2018-09-25T03:31:41.302Z,10.60
2018-09-25T03:34:15.184Z,9.93
2018-09-25T03:36:48.890Z,9.03
2018-09-25T03:39:23.624Z,10.10
2018-09-25T03:41:57.462Z,9.30
2018-09-25T03:44:32.009Z,9.47
2018-09-25T03:47:05.835Z,8.80
2018-09-25T03:49:39.650Z,10.03
2018-09-25T03:52:14.504Z,10.60
2018-09-25T03:54:50.650Z,9.27
2018-09-25T03:57:24.630Z,8.90
2018-09-25T03:59:59.359Z,9.47
2018-09-25T04:02:33.132Z,9.80
2018-09-25T04:05:07.011Z,8.23
2018-09-25T04:07:40.826Z,8.90
2018-09-25T04:10:14.876Z,8.63
2018-09-25T04:12:48.750Z,8.73
2018-09-25T04:15:22.602Z,8.87
2018-09-25T04:17:56.498Z,9.57
2018-09-25T04:20:30.337Z,7.47
2018-09-25T04:23:04.066Z,8.87
2018-09-25T04:25:37.873Z,8.67
2018-09-25T04:28:11.631Z,9.03
2018-09-25T04:30:45.572Z,9.60
2018-09-25T04:33:20.014Z,9.03
2018-09-25T04:35:53.799Z,9.53
2018-09-25T04:38:27.657Z,9.47
2018-09-25T04:41:01.532Z,9.30
2018-09-25T04:43:35.900Z,9.40
2018-09-25T04:46:09.739Z,10.57
2018-09-25T04:48:43.331Z,9.20
2018-09-25T04:51:17.200Z,7.73
2018-09-25T04:53:51.007Z,11.10
2018-09-25T04:56:24.662Z,9.10
2018-09-25T04:58:58.595Z,10.37
2018-09-25T05:01:32.325Z,11.03
2018-09-25T05:04:06.855Z,9.63
2018-09-25T05:06:40.800Z,11.73
2018-09-25T05:09:14.702Z,10.73
2018-09-25T05:11:48.527Z,9.60
2018-09-25T05:14:22.563Z,9.90
2018-09-25T05:16:56.357Z,8.93
2018-09-25T05:19:30.138Z,18.23
2018-09-25T05:22:04.020Z,22.87
2018-09-25T05:24:38.466Z,23.53
2018-09-25T05:27:12.439Z,21.60
2018-09-25T05:29:46.145Z,19.80
2018-09-25T05:32:19.936Z,18.50
2018-09-25T05:34:53.855Z,13.60
2018-09-25T05:37:28.070Z,12.00
2018-09-25T05:40:01.802Z,10.23
2018-09-25T05:42:35.786Z,8.80
2018-09-25T05:45:09.744Z,8.00
2018-09-25T05:47:43.483Z,7.80
2018-09-25T05:50:17.874Z,7.67
2018-09-25T05:52:51.819Z,7.20
2018-09-25T05:55:25.512Z,6.97
2018-09-25T05:57:59.243Z,8.20
2018-09-25T06:00:33.119Z,8.70
2018-09-25T06:03:08.155Z,7.97
2018-09-25T06:05:42.475Z,7.40
2018-09-25T06:08:16.220Z,11.83
2018-09-25T06:10:49.982Z,15.90
2018-09-25T06:13:23.727Z,11.10
2018-09-25T06:15:58.554Z,11.80
2018-09-25T06:18:32.322Z,10.47
2018-09-25T06:21:06.738Z,9.80
2018-09-25T06:23:40.430Z,9.40
2018-09-25T06:26:14.253Z,9.73
2018-09-25T06:28:48.209Z,9.53
2018-09-25T06:31:21.983Z,8.17
2018-09-25T06:33:55.883Z,7.43
2018-09-25T06:36:29.643Z,8.37
2018-09-25T06:39:03.599Z,8.20
2018-09-25T06:41:37.422Z,8.60
2018-09-25T06:44:11.212Z,10.10
2018-09-25T06:46:45.915Z,9.93
2018-09-25T06:49:19.843Z,11.50
2018-09-25T06:51:54.158Z,11.07
2018-09-25T06:54:27.835Z,10.93
2018-09-25T06:57:01.591Z,9.47
2018-09-25T06:59:35.324Z,9.27
2018-09-25T07:02:09.148Z,10.37
2018-09-25T07:04:43.123Z,8.30
2018-09-25T07:07:17.083Z,9.00
2018-09-25T07:09:50.986Z,8.93
2018-09-25T07:12:24.890Z,8.80
2018-09-25T07:14:58.739Z,8.47
2018-09-25T07:17:32.649Z,8.50
2018-09-25T07:20:06.247Z,7.37
2018-09-25T07:22:40.189Z,6.40
2018-09-25T07:25:13.915Z,7.27
2018-09-25T07:27:48.401Z,7.23
2018-09-25T07:30:22.974Z,6.90
2018-09-25T07:32:57.487Z,6.80
2018-09-25T07:35:31.211Z,5.40
2018-09-25T07:38:05.236Z,5.70
2018-09-25T07:40:38.986Z,5.57
2018-09-25T07:43:12.860Z,5.40
2018-09-25T07:45:46.651Z,5.20
2018-09-25T07:48:20.797Z,4.03
2018-09-25T07:50:54.626Z,4.70
2018-09-25T07:53:28.543Z,4.50
2018-09-25T07:56:02.263Z,3.90
2018-09-25T07:58:36.140Z,3.83
2018-09-25T08:01:09.913Z,3.90
2018-09-25T08:03:43.849Z,4.40
2018-09-25T08:06:17.424Z,4.00
2018-09-25T08:08:51.716Z,3.57
2018-09-25T08:11:25.539Z,4.27
2018-09-25T08:13:59.355Z,3.80
2018-09-25T08:16:33.164Z,4.70
2018-09-25T08:19:07.031Z,3.67
2018-09-25T08:21:40.851Z,4.87
2018-09-25T08:24:14.540Z,4.37
2018-09-25T08:26:48.331Z,4.07
2018-09-25T08:29:22.129Z,3.50
2018-09-25T08:31:55.914Z,3.90
2018-09-25T08:34:29.614Z,3.80
2018-09-25T08:37:03.431Z,4.43
2018-09-25T08:39:37.253Z,4.00
2018-09-25T08:42:10.927Z,4.00
2018-09-25T08:44:45.099Z,3.43
2018-09-25T08:47:18.987Z,3.23
2018-09-25T08:49:52.668Z,3.20
2018-09-25T08:52:26.418Z,2.77
2018-09-25T08:55:00.184Z,3.60
2018-09-25T08:57:33.940Z,2.63
2018-09-25T09:00:07.744Z,1.90
2018-09-25T09:02:41.396Z,2.50
2018-09-25T09:05:15.295Z,2.43
2018-09-25T09:07:49.142Z,2.60
2018-09-25T09:10:22.886Z,2.27
2018-09-25T09:12:56.661Z,2.40
2018-09-25T09:15:30.555Z,2.20
2018-09-25T09:18:04.443Z,1.53
2018-09-25T09:20:38.239Z,1.47
2018-09-25T09:23:12.024Z,1.67
2018-09-25T09:25:45.594Z,1.80
2018-09-25T09:28:19.508Z,1.47
2018-09-25T09:30:53.247Z,1.97
2018-09-25T09:33:27.043Z,2.07
2018-09-25T09:36:00.786Z,1.30
2018-09-25T09:38:34.481Z,2.97
2018-09-25T09:41:08.298Z,1.60
2018-09-25T09:43:42.246Z,1.87
2018-09-25T09:46:15.986Z,1.37
2018-09-25T09:48:49.782Z,1.50
2018-09-25T09:51:23.633Z,1.17
2018-09-25T09:53:57.396Z,1.50
2018-09-25T09:56:31.170Z,1.17
2018-09-25T09:59:04.891Z,1.27
2018-09-25T10:03:03.048Z,1.10
2018-09-25T10:05:36.924Z,1.07
2018-09-25T10:08:10.655Z,1.63
2018-09-25T10:10:44.493Z,1.10
2018-09-25T10:13:18.396Z,1.33
2018-09-25T10:15:52.403Z,1.07
2018-09-25T10:18:26.314Z,1.00
2018-09-25T10:21:00.178Z,1.07
2018-09-25T10:23:33.856Z,1.33
2018-09-25T10:26:07.725Z,1.00
2018-09-25T10:28:41.522Z,0.90
2018-09-25T10:31:16.599Z,0.80
2018-09-25T10:33:50.496Z,0.90
2018-09-25T10:36:24.335Z,1.10
2018-09-25T10:38:58.232Z,1.17
2018-09-25T10:41:32.020Z,1.00
2018-09-25T10:44:05.771Z,1.37
2018-09-25T10:46:39.597Z,0.70
2018-09-25T10:49:13.328Z,0.70
2018-09-25T10:51:46.995Z,1.47
2018-09-25T10:54:20.751Z,0.90
2018-09-25T10:56:54.451Z,0.80
2018-09-25T10:59:28.274Z,0.93
2018-09-25T11:02:02.019Z,1.00
2018-09-25T11:04:35.667Z,0.83
2018-09-25T11:07:09.443Z,1.10
2018-09-25T11:09:43.254Z,1.27
2018-09-25T11:12:17.070Z,0.90
2018-09-25T11:14:50.843Z,0.80
2018-09-25T11:17:24.561Z,0.90
2018-09-25T11:19:58.411Z,0.80
2018-09-25T11:22:32.918Z,0.97
2018-09-25T11:25:07.291Z,1.20
2018-09-25T11:27:40.999Z,1.30
2018-09-25T11:30:14.744Z,0.90
2018-09-25T11:32:48.577Z,1.17
2018-09-25T11:35:22.330Z,1.03
2018-09-25T11:37:56.147Z,1.10
2018-09-25T11:40:29.961Z,0.70
2018-09-25T11:43:04.066Z,0.80
2018-09-25T11:45:37.835Z,1.23
2018-09-25T11:48:11.483Z,1.00
2018-09-25T11:50:45.253Z,1.20
2018-09-25T11:53:18.775Z,0.70
2018-09-25T11:55:52.861Z,0.70
2018-09-25T11:58:26.816Z,0.60
2018-09-25T12:01:00.603Z,0.80
2018-09-25T12:03:34.491Z,0.80
2018-09-25T12:06:08.382Z,1.03
2018-09-25T12:08:42.276Z,0.93
2018-09-25T12:11:16.203Z,0.90
2018-09-25T12:13:49.962Z,1.10
2018-09-25T12:16:23.575Z,2.17
2018-09-25T12:18:57.232Z,0.97
2018-09-25T12:21:31.208Z,0.90
2018-09-25T12:24:05.016Z,0.80
2018-09-25T12:26:38.794Z,0.60
2018-09-25T12:29:12.744Z,0.90
2018-09-25T12:31:46.615Z,0.80
2018-09-25T12:34:20.480Z,0.70
2018-09-25T12:36:54.283Z,0.60
2018-09-25T12:39:28.001Z,0.70
2018-09-25T12:42:01.620Z,0.77
2018-09-25T12:44:35.624Z,0.60
2018-09-25T12:47:09.669Z,0.60
2018-09-25T12:49:43.516Z,0.70
2018-09-25T12:52:17.345Z,0.60
2018-09-25T12:54:51.167Z,0.80
2018-09-25T12:57:24.895Z,0.70
2018-09-25T12:59:58.665Z,0.70
2018-09-25T13:02:32.616Z,0.70
2018-09-25T13:05:06.463Z,0.77
2018-09-25T13:07:40.406Z,0.90
2018-09-25T13:10:14.214Z,0.90
2018-09-25T13:12:48.011Z,0.73
2018-09-25T13:15:21.721Z,0.70
2018-09-25T13:17:56.290Z,1.10
2018-09-25T13:20:30.060Z,0.80
2018-09-25T13:23:04.013Z,0.93
2018-09-25T13:25:37.780Z,1.00
2018-09-25T13:28:11.615Z,0.90
2018-09-25T13:30:45.235Z,1.00
2018-09-25T13:33:19.171Z,1.03
2018-09-25T13:35:52.763Z,1.00
2018-09-25T13:38:26.435Z,1.20
2018-09-25T13:41:00.523Z,1.60
2018-09-25T13:43:34.440Z,3.13
2018-09-25T13:46:08.222Z,1.27
2018-09-25T13:48:42.017Z,1.10
2018-09-25T13:51:16.027Z,1.23
2018-09-25T13:53:49.735Z,1.10
2018-09-25T13:56:23.579Z,1.00
2018-09-25T13:58:58.660Z,1.00
2018-09-25T14:01:32.414Z,0.80
2018-09-25T14:04:06.190Z,3.63
2018-09-25T14:06:39.966Z,1.73
2018-09-25T14:09:15.229Z,1.20
2018-09-25T14:11:49.067Z,1.23
2018-09-25T14:14:22.802Z,1.07
2018-09-25T14:16:56.563Z,2.50
2018-09-25T14:19:30.710Z,1.20
2018-09-25T14:22:04.649Z,1.63
2018-09-25T14:24:38.321Z,2.03
2018-09-25T14:27:12.175Z,3.17
2018-09-25T14:29:45.980Z,19.83
2018-09-25T14:32:19.826Z,2.17
2018-09-25T14:34:54.300Z,0.90
2018-09-25T14:37:28.297Z,1.17
2018-09-25T14:40:01.951Z,1.20
2018-09-25T14:42:35.698Z,1.20
2018-09-25T14:45:09.607Z,1.10
2018-09-25T14:47:43.604Z,1.00
2018-09-25T14:50:17.530Z,1.17
2018-09-25T14:52:53.590Z,1.60
2018-09-25T14:55:28.002Z,1.47
2018-09-25T14:58:02.359Z,0.90
2018-09-25T15:00:36.072Z,4.13
2018-09-25T15:03:09.914Z,1.30
2018-09-25T15:05:43.848Z,1.70
2018-09-25T15:08:17.607Z,1.20
2018-09-25T15:10:52.020Z,1.33
2018-09-25T15:13:25.932Z,1.10
2018-09-25T15:16:00.444Z,1.00
2018-09-25T15:18:35.795Z,1.10
2018-09-25T15:21:10.992Z,0.90
2018-09-25T15:23:45.578Z,0.83
2018-09-25T15:26:19.397Z,1.57
2018-09-25T15:28:53.000Z,1.03
2018-09-25T15:31:33.228Z,1.33
2018-09-25T15:34:06.854Z,1.30
2018-09-25T15:36:40.617Z,2.80
2018-09-25T15:39:14.995Z,4.60
2018-09-25T15:41:48.858Z,1.37
2018-09-25T15:44:22.557Z,2.13
2018-09-25T15:46:56.519Z,1.13
2018-09-25T15:49:30.452Z,1.20
2018-09-25T15:52:04.219Z,1.90
2018-09-25T15:54:38.241Z,0.83
2018-09-25T15:57:12.018Z,1.43
2018-09-25T15:59:45.913Z,1.23
2018-09-25T16:02:20.895Z,1.70
2018-09-25T16:04:54.706Z,5.80
2018-09-25T16:07:28.662Z,2.50
2018-09-25T16:10:02.603Z,1.30
2018-09-25T16:12:37.730Z,1.00
2018-09-25T16:15:11.499Z,2.00
2018-09-25T16:17:45.200Z,1.10
2018-09-25T16:20:19.058Z,0.87
2018-09-25T16:22:52.791Z,2.03
2018-09-25T16:25:26.679Z,0.83
2018-09-25T16:28:00.546Z,0.70
2018-09-25T16:30:35.139Z,0.80
2018-09-25T16:33:08.958Z,0.90
2018-09-25T16:35:43.522Z,0.90
2018-09-25T16:38:17.287Z,1.27
2018-09-25T16:40:51.182Z,0.97
2018-09-25T16:43:25.070Z,0.70
2018-09-25T16:45:58.805Z,0.90
2018-09-25T16:48:32.516Z,1.00
2018-09-25T16:51:06.220Z,0.93
2018-09-25T16:53:40.045Z,1.10
2018-09-25T16:56:14.126Z,0.83
2018-09-25T16:58:47.816Z,0.80
2018-09-25T17:01:21.567Z,2.93
2018-09-25T17:03:55.408Z,1.97
2018-09-25T17:06:29.281Z,1.27
2018-09-25T17:09:03.127Z,2.93
2018-09-25T17:11:36.988Z,4.40
2018-09-25T17:14:11.195Z,4.27
2018-09-25T17:16:45.002Z,3.60
2018-09-25T17:19:18.811Z,3.63
2018-09-25T17:21:52.786Z,3.30
2018-09-25T17:24:26.682Z,3.37
2018-09-25T17:27:00.393Z,2.70
2018-09-25T17:29:34.004Z,1.77
2018-09-25T17:32:07.735Z,2.17
2018-09-25T17:34:41.597Z,1.90
2018-09-25T17:37:15.482Z,1.87
2018-09-25T17:39:49.278Z,1.43
2018-09-25T17:42:23.063Z,1.27
2018-09-25T17:44:58.729Z,1.20
2018-09-25T17:47:32.721Z,3.93
2018-09-25T17:50:06.410Z,4.90
2018-09-25T17:52:40.221Z,5.40
2018-09-25T17:55:13.967Z,3.90
2018-09-25T17:57:47.757Z,4.83
2018-09-25T18:00:21.593Z,2.50
2018-09-25T18:02:55.530Z,1.33
2018-09-25T18:05:29.395Z,1.70
2018-09-25T18:08:03.238Z,1.90
2018-09-25T18:10:36.801Z,2.03
2018-09-25T18:13:10.663Z,2.07
2018-09-25T18:15:44.487Z,1.70
2018-09-25T18:18:18.287Z,1.63
2018-09-25T18:20:52.000Z,1.73
2018-09-25T18:23:26.520Z,1.97
2018-09-25T18:26:00.614Z,1.50
2018-09-25T18:28:35.066Z,2.30
2018-09-25T18:31:08.881Z,2.63
2018-09-25T18:33:43.509Z,2.00
2018-09-25T18:36:17.194Z,3.13
2018-09-25T18:38:50.930Z,3.33
2018-09-25T18:41:25.398Z,2.90
2018-09-25T18:43:59.078Z,2.40
2018-09-25T18:46:32.851Z,2.33
2018-09-25T18:49:06.597Z,2.03
2018-09-25T18:51:40.595Z,2.90
2018-09-25T18:54:14.487Z,2.53
2018-09-25T18:56:48.283Z,4.17
2018-09-25T18:59:22.095Z,3.70
2018-09-25T19:01:55.843Z,3.20
2018-09-25T19:04:29.495Z,3.20
2018-09-25T19:07:03.333Z,3.20
2018-09-25T19:09:37.107Z,4.53
2018-09-25T19:12:11.863Z,4.30
2018-09-25T19:14:45.494Z,4.20
2018-09-25T19:17:19.397Z,3.50
2018-09-25T19:19:53.133Z,3.30
2018-09-25T19:22:27.585Z,3.57
2018-09-25T19:25:02.271Z,2.90
2018-09-25T19:27:36.094Z,2.63
2018-09-25T19:30:10.187Z,2.33
2018-09-25T19:32:44.190Z,2.33
2018-09-25T19:35:18.130Z,1.80
2018-09-25T19:37:51.889Z,3.00
2018-09-25T19:40:25.672Z,2.30
2018-09-25T19:42:59.576Z,2.13
2018-09-25T19:45:33.342Z,1.80
2018-09-25T19:48:07.451Z,2.23
2018-09-25T19:50:41.295Z,1.77
2018-09-25T19:53:15.682Z,1.70
2018-09-25T19:55:49.526Z,1.70
2018-09-25T19:58:23.397Z,1.77
2018-09-25T20:00:57.177Z,1.60
2018-09-25T20:03:31.086Z,1.73
2018-09-25T20:06:05.000Z,2.27
2018-09-25T20:08:38.717Z,2.00
2018-09-25T20:11:13.583Z,2.00
2018-09-25T20:13:47.407Z,2.50
2018-09-25T20:16:21.334Z,2.30
2018-09-25T20:18:55.153Z,2.50
2018-09-25T20:21:28.948Z,2.87
2018-09-25T20:24:02.910Z,2.40
2018-09-25T20:26:38.050Z,2.43
2018-09-25T20:29:12.190Z,2.13
2018-09-25T20:31:46.213Z,2.60
2018-09-25T20:34:20.062Z,2.03
2018-09-25T20:36:53.939Z,2.40
2018-09-25T20:39:27.857Z,3.00
2018-09-25T20:42:01.664Z,3.40
2018-09-25T20:44:35.426Z,2.50
2018-09-25T20:47:09.397Z,3.00
2018-09-25T20:49:44.227Z,2.57
2018-09-25T20:52:18.192Z,2.60
2018-09-25T20:54:52.702Z,2.53
2018-09-25T20:57:26.475Z,2.27
2018-09-25T21:00:00.395Z,3.23
2018-09-25T21:02:34.354Z,3.80
2018-09-25T21:05:08.245Z,3.50
2018-09-25T21:07:42.062Z,3.60
2018-09-25T21:10:16.083Z,5.20
2018-09-25T21:12:50.001Z,3.30
2018-09-25T21:15:24.206Z,3.47
2018-09-25T21:17:57.913Z,3.67
2018-09-25T21:20:31.599Z,3.77
2018-09-25T21:23:05.389Z,3.93
2018-09-25T21:25:39.165Z,4.23
2018-09-25T21:28:13.073Z,3.70
2018-09-25T21:30:47.551Z,3.07
2018-09-25T21:33:21.499Z,3.60
2018-09-25T21:35:56.372Z,2.70
2018-09-25T21:38:30.016Z,3.07
2018-09-25T21:41:03.902Z,4.70
2018-09-25T21:43:37.508Z,4.00
2018-09-25T21:46:11.403Z,5.20
2018-09-25T21:48:45.675Z,3.93
2018-09-25T21:51:19.600Z,3.63
2018-09-25T21:53:53.190Z,3.90
2018-09-25T21:56:28.300Z,4.17
2018-09-25T21:59:02.161Z,4.33
2018-09-25T22:01:36.029Z,3.80
2018-09-25T22:04:09.792Z,3.83
2018-09-25T22:06:43.627Z,3.93
2018-09-25T22:09:17.441Z,3.97
2018-09-25T22:11:51.275Z,3.67
2018-09-25T22:14:26.307Z,4.20
2018-09-25T22:17:00.840Z,3.73
2018-09-25T22:19:35.364Z,4.43
2018-09-25T22:22:09.271Z,3.93
2018-09-25T22:24:43.119Z,4.50
2018-09-25T22:27:17.129Z,3.80
2018-09-25T22:29:50.833Z,4.80
2018-09-25T22:32:24.563Z,3.80
2018-09-25T22:34:58.275Z,3.50
2018-09-25T22:37:32.037Z,4.00
2018-09-25T22:40:05.854Z,4.60
2018-09-25T22:42:39.835Z,3.80
2018-09-25T22:45:13.630Z,3.90
2018-09-25T22:47:47.466Z,3.50
2018-09-25T22:50:21.235Z,4.50
2018-09-25T22:52:55.654Z,4.43
2018-09-25T22:55:29.609Z,4.50
2018-09-25T22:58:03.453Z,4.50
2018-09-25T23:00:38.022Z,4.60
2018-09-25T23:03:11.929Z,5.03
2018-09-25T23:05:45.828Z,4.40
2018-09-25T23:08:19.750Z,4.87
2018-09-25T23:10:53.648Z,5.17
2018-09-25T23:13:27.945Z,5.30
2018-09-25T23:16:03.365Z,5.23
2018-09-25T23:18:37.092Z,4.27
2018-09-25T23:21:10.900Z,5.13
2018-09-25T23:23:44.702Z,4.23
2018-09-25T23:26:18.682Z,5.53
2018-09-25T23:28:52.561Z,5.10
2018-09-25T23:31:27.267Z,5.00
2018-09-25T23:34:01.116Z,5.40
2018-09-25T23:36:35.413Z,4.60
2018-09-25T23:39:09.154Z,5.03
2018-09-25T23:41:42.190Z,5.20
2018-09-25T23:44:16.010Z,7.30
2018-09-25T23:46:49.802Z,8.93
2018-09-25T23:49:25.552Z,8.77
2018-09-25T23:52:03.714Z,8.70
2018-09-25T23:54:54.076Z,9.60
2018-09-25T23:58:27.776Z,10.73
